Paramount Hamilton — 2CWB2 — position and weather

sailwx.info

Track history (hours):
 
Tides and Currents Weather Stations Pressure Air Temp Water Temp Dewpoint Dewpoint Depression Visibility Wind Speed Wind Dir Waves Ship Positions

Paramount Hamilton

Last reported at 2016-Jan-19 11:23 UTC. Time now 2016-Feb-07 17:31 UTC.
Position N 38°21' W 074°39'.
Warning: this ship's position is 19 days out of date.

Length 250 m; draft 7.3 m.

Type: Tanker. MMSI: 235076274.

Date/timePositionNaut miles runAvg speedWind from/ knotsBaromVisibWave heightAir tempDewpointWater temp
2016-Jan-19 11:23N 38°21' W 074°39'1112.8
2016-Jan-19 10:33N 38°29' W 074°46'1312.7
2016-Jan-19 09:33N 38°40' W 074°55'1211.6
2016-Jan-19 08:33N 38°50' W 075°04'1211.6
2016-Jan-19 07:33N 39°00' W 075°09'4313.6
2016-Jan-19 04:25N 39°39' W 075°33'1112.4
2016-Jan-19 03:33N 39°48' W 075°26'8 8.1
2016-Jan-19 02:33N 39°51' W 075°16'0 0.2
2016-Jan-19 01:33N 39°51' W 075°16'0 0.0
2016-Jan-19 00:33N 39°51' W 075°16'0 0.0
2016-Jan-18 23:29N 39°51' W 075°16'0 0.0
2016-Jan-18 22:23N 39°51' W 075°16'0 0.0
2016-Jan-18 21:32N 39°51' W 075°16'0 0.0
2016-Jan-18 20:32N 39°51' W 075°16'0 0.0
2016-Jan-18 18:20N 39°51' W 075°16'0 0.0
2016-Jan-18 17:32N 39°51' W 075°16'0 0.0
2016-Jan-18 16:32N 39°51' W 075°16'0 0.0
2016-Jan-18 15:05N 39°51' W 075°16'0 0.0
2016-Jan-18 13:32N 39°51' W 075°16'0 0.0
2016-Jan-18 12:23N 39°51' W 075°16'0 0.0
2016-Jan-18 11:32N 39°51' W 075°16'0 0.0
2016-Jan-18 10:32N 39°51' W 075°16'0 0.0
2016-Jan-18 09:29N 39°51' W 075°16'0 0.0
2016-Jan-18 08:32N 39°51' W 075°16'0 0.0
2016-Jan-18 07:32N 39°51' W 075°16'0 0.0
2016-Jan-18 06:32N 39°51' W 075°16'0 0.0
2016-Jan-18 05:20N 39°51' W 075°16'0 0.0
2016-Jan-18 04:29N 39°51' W 075°16'0 0.0
2016-Jan-18 03:32N 39°51' W 075°16'0 0.0
2016-Jan-18 02:33N 39°51' W 075°16'1 1.4
2016-Jan-18 01:33N 39°51' W 075°18'7 7.5
2016-Jan-18 00:34N 39°47' W 075°27'10 8.7
2016-Jan-17 23:26N 39°39' W 075°33'3811.3
2016-Jan-17 20:05N 39°05' W 075°11'612.2
2016-Jan-17 19:33N 38°59' W 075°08'1211.9
2016-Jan-17 18:33N 38°48' W 075°03'7 6.7
2016-Jan-17 17:33N 38°44' W 074°56'5 5.3
2016-Jan-17 16:33N 38°40' W 074°52'7 7.0
2016-Jan-17 15:33N 38°34' W 074°46'7 7.0
2016-Jan-17 14:33N 38°29' W 074°41'4 3.6
2016-Jan-17 13:31N 38°27' W 074°36'1 1.3
2016-Jan-17 12:34N 38°26' W 074°35'  
2016-Jan-14 17:33N 26°35' W 079°44'1514.8
2016-Jan-14 16:33N 26°20' W 079°47'1514.6
2016-Jan-14 15:33N 26°06' W 079°50'1514.6
2016-Jan-14 14:33N 25°52' W 079°51'1514.7
2016-Jan-14 13:33N 25°37' W 079°53'1514.6
2016-Jan-14 12:33N 25°23' W 079°56'  
Track history (hours):
 
Tides and Currents Weather Stations Pressure Air Temp Water Temp Dewpoint Dewpoint Depression Visibility Wind Speed Wind Dir Waves Ship Positions

Paramount Hamilton

Last reported at 2016-Jan-19 11:23 UTC. Time now 2016-Feb-07 17:31 UTC.
Position N 38°21' W 074°39'.
Warning: this ship's position is 19 days out of date.

Length 250 m; draft 7.3 m.

Type: Tanker. MMSI: 235076274.

Date/timePositionNaut miles runAvg speedWind from/ knotsBaromVisibWave heightAir tempDewpointWater temp
2016-Jan-19 11:23N 38°21' W 074°39'1112.8
2016-Jan-19 10:33N 38°29' W 074°46'1312.7
2016-Jan-19 09:33N 38°40' W 074°55'1211.6
2016-Jan-19 08:33N 38°50' W 075°04'1211.6
2016-Jan-19 07:33N 39°00' W 075°09'4313.6
2016-Jan-19 04:25N 39°39' W 075°33'1112.4
2016-Jan-19 03:33N 39°48' W 075°26'8 8.1
2016-Jan-19 02:33N 39°51' W 075°16'0 0.2
2016-Jan-19 01:33N 39°51' W 075°16'0 0.0
2016-Jan-19 00:33N 39°51' W 075°16'0 0.0
2016-Jan-18 23:29N 39°51' W 075°16'0 0.0
2016-Jan-18 22:23N 39°51' W 075°16'0 0.0
2016-Jan-18 21:32N 39°51' W 075°16'0 0.0
2016-Jan-18 20:32N 39°51' W 075°16'0 0.0
2016-Jan-18 18:20N 39°51' W 075°16'0 0.0
2016-Jan-18 17:32N 39°51' W 075°16'0 0.0
2016-Jan-18 16:32N 39°51' W 075°16'0 0.0
2016-Jan-18 15:05N 39°51' W 075°16'0 0.0
2016-Jan-18 13:32N 39°51' W 075°16'0 0.0
2016-Jan-18 12:23N 39°51' W 075°16'0 0.0
2016-Jan-18 11:32N 39°51' W 075°16'0 0.0
2016-Jan-18 10:32N 39°51' W 075°16'0 0.0
2016-Jan-18 09:29N 39°51' W 075°16'0 0.0
2016-Jan-18 08:32N 39°51' W 075°16'0 0.0
2016-Jan-18 07:32N 39°51' W 075°16'0 0.0
2016-Jan-18 06:32N 39°51' W 075°16'0 0.0
2016-Jan-18 05:20N 39°51' W 075°16'0 0.0
2016-Jan-18 04:29N 39°51' W 075°16'0 0.0
2016-Jan-18 03:32N 39°51' W 075°16'0 0.0
2016-Jan-18 02:33N 39°51' W 075°16'1 1.4
2016-Jan-18 01:33N 39°51' W 075°18'7 7.5
2016-Jan-18 00:34N 39°47' W 075°27'10 8.7
2016-Jan-17 23:26N 39°39' W 075°33'3811.3
2016-Jan-17 20:05N 39°05' W 075°11'612.2
2016-Jan-17 19:33N 38°59' W 075°08'1211.9
2016-Jan-17 18:33N 38°48' W 075°03'7 6.7
2016-Jan-17 17:33N 38°44' W 074°56'5 5.3
2016-Jan-17 16:33N 38°40' W 074°52'7 7.0
2016-Jan-17 15:33N 38°34' W 074°46'7 7.0
2016-Jan-17 14:33N 38°29' W 074°41'4 3.6
2016-Jan-17 13:31N 38°27' W 074°36'1 1.3
2016-Jan-17 12:34N 38°26' W 074°35'  
2016-Jan-14 17:33N 26°35' W 079°44'1514.8
2016-Jan-14 16:33N 26°20' W 079°47'1514.6
2016-Jan-14 15:33N 26°06' W 079°50'1514.6
2016-Jan-14 14:33N 25°52' W 079°51'1514.7
2016-Jan-14 13:33N 25°37' W 079°53'1514.6
2016-Jan-14 12:33N 25°23' W 079°56'  

Dump ship's entire track history